createdAt,value
2018-07-31T00:00:47.579Z,0.00
2018-07-31T00:01:47.613Z,0.00
2018-07-31T00:02:47.639Z,0.00
2018-07-31T00:03:47.668Z,0.00
2018-07-31T00:04:47.705Z,0.00
2018-07-31T00:05:47.728Z,0.00
2018-07-31T00:06:47.756Z,0.00
2018-07-31T00:07:47.782Z,0.00
2018-07-31T00:08:47.813Z,0.00
2018-07-31T00:09:47.847Z,0.00
2018-07-31T00:10:47.870Z,0.00
2018-07-31T00:11:47.900Z,0.00
2018-07-31T00:12:47.931Z,0.00
2018-07-31T00:13:47.960Z,0.00
2018-07-31T00:14:47.984Z,0.00
2018-07-31T00:15:48.014Z,0.00
2018-07-31T00:16:48.043Z,0.00
2018-07-31T00:17:48.071Z,0.00
2018-07-31T00:18:48.102Z,0.00
2018-07-31T00:19:48.128Z,0.00
2018-07-31T00:20:48.161Z,0.00
2018-07-31T00:21:48.189Z,0.00
2018-07-31T00:22:48.217Z,0.00
2018-07-31T00:23:48.246Z,0.00
2018-07-31T00:24:48.272Z,0.00
2018-07-31T00:25:48.302Z,0.00
2018-07-31T00:26:48.333Z,0.00
2018-07-31T00:27:48.361Z,0.00
2018-07-31T00:28:48.388Z,0.00
2018-07-31T00:29:48.417Z,0.00
2018-07-31T00:30:48.448Z,0.00
2018-07-31T00:31:48.473Z,0.00
2018-07-31T00:32:48.501Z,0.00
2018-07-31T00:33:48.536Z,0.00
2018-07-31T00:34:48.564Z,0.00
2018-07-31T00:35:48.590Z,0.00
2018-07-31T00:36:48.623Z,0.00
2018-07-31T00:37:48.648Z,0.00
2018-07-31T00:38:48.676Z,0.00
2018-07-31T00:39:48.705Z,0.00
2018-07-31T00:40:48.734Z,0.00
2018-07-31T00:41:48.763Z,0.00
2018-07-31T00:42:48.790Z,0.00
2018-07-31T00:43:48.820Z,0.00
2018-07-31T00:44:48.851Z,0.00
2018-07-31T00:45:48.875Z,0.00
2018-07-31T00:46:48.907Z,0.00
2018-07-31T00:47:48.931Z,0.00
2018-07-31T00:48:48.960Z,0.00
2018-07-31T00:49:48.993Z,0.00
2018-07-31T00:50:49.017Z,0.00
2018-07-31T00:51:49.047Z,0.00
2018-07-31T00:52:49.076Z,0.00
2018-07-31T00:53:49.101Z,0.00
2018-07-31T00:54:49.130Z,0.00
2018-07-31T00:55:49.158Z,0.00
2018-07-31T00:56:49.190Z,0.00
2018-07-31T00:57:49.218Z,0.00
2018-07-31T00:58:49.248Z,0.00
2018-07-31T00:59:49.275Z,0.00
2018-07-31T01:00:49.305Z,0.00
2018-07-31T01:01:49.332Z,0.00
2018-07-31T01:02:49.358Z,0.00
2018-07-31T01:03:49.391Z,0.00
2018-07-31T01:04:49.418Z,0.00
2018-07-31T01:05:49.444Z,0.00
2018-07-31T01:06:49.471Z,0.00
2018-07-31T01:07:49.499Z,0.00
2018-07-31T01:08:49.528Z,0.00
2018-07-31T01:09:49.559Z,0.00
2018-07-31T01:10:49.624Z,0.00
2018-07-31T01:11:49.612Z,0.00
2018-07-31T01:12:49.643Z,0.00
2018-07-31T01:13:49.668Z,0.00
2018-07-31T01:14:49.697Z,0.00
2018-07-31T01:15:49.725Z,0.00
2018-07-31T01:16:49.757Z,0.00
2018-07-31T01:17:49.783Z,0.00
2018-07-31T01:18:49.813Z,0.00
2018-07-31T01:19:49.841Z,0.00
2018-07-31T01:20:49.867Z,0.00
2018-07-31T01:21:49.898Z,0.00
2018-07-31T01:22:49.922Z,0.00
2018-07-31T01:23:49.954Z,0.00
2018-07-31T01:24:49.980Z,0.00
2018-07-31T01:25:50.011Z,0.00
2018-07-31T01:26:50.039Z,0.00
2018-07-31T01:27:50.062Z,0.00
2018-07-31T01:28:50.094Z,0.00
2018-07-31T01:29:50.121Z,0.00
2018-07-31T01:30:50.151Z,0.00
2018-07-31T01:31:50.179Z,0.00
2018-07-31T01:32:50.206Z,0.00
2018-07-31T01:33:50.232Z,0.00
2018-07-31T01:34:50.262Z,0.00
2018-07-31T01:35:50.289Z,0.00
2018-07-31T01:36:50.317Z,0.00
2018-07-31T01:37:50.346Z,0.00
2018-07-31T01:38:50.374Z,0.00
2018-07-31T01:39:50.406Z,0.00
2018-07-31T01:40:50.432Z,0.00
2018-07-31T01:41:50.458Z,0.00
2018-07-31T01:42:50.490Z,0.00
2018-07-31T01:43:50.513Z,0.00
2018-07-31T01:44:50.543Z,0.00
2018-07-31T01:45:50.592Z,0.00
2018-07-31T01:46:50.601Z,0.00
2018-07-31T01:47:50.628Z,0.00
2018-07-31T01:48:50.658Z,0.00
2018-07-31T01:49:50.682Z,0.00
2018-07-31T01:50:50.712Z,0.00
2018-07-31T01:51:50.740Z,0.00
2018-07-31T01:52:50.768Z,0.00
2018-07-31T01:53:50.796Z,0.00
2018-07-31T01:54:50.825Z,0.00
2018-07-31T01:55:50.853Z,0.00
2018-07-31T01:56:50.881Z,0.00
2018-07-31T01:57:50.909Z,0.00
2018-07-31T01:58:50.934Z,0.00
2018-07-31T01:59:50.964Z,0.00
2018-07-31T02:00:50.992Z,0.00
2018-07-31T02:01:51.020Z,0.00
2018-07-31T02:02:51.047Z,0.00
2018-07-31T02:03:51.074Z,0.00
2018-07-31T02:04:51.102Z,0.00
2018-07-31T02:05:51.130Z,0.00
2018-07-31T02:06:51.161Z,0.00
2018-07-31T02:07:51.191Z,0.00
2018-07-31T02:08:51.213Z,0.00
2018-07-31T02:09:51.241Z,0.00
2018-07-31T02:10:51.268Z,0.00
2018-07-31T02:11:51.298Z,0.00
2018-07-31T02:12:51.325Z,0.00
2018-07-31T02:13:51.354Z,0.00
2018-07-31T02:14:51.380Z,0.00
2018-07-31T02:15:51.408Z,0.00
2018-07-31T02:16:51.438Z,0.00
2018-07-31T02:17:51.463Z,0.00
2018-07-31T02:18:51.494Z,0.00
2018-07-31T02:19:51.521Z,0.00
2018-07-31T02:20:51.549Z,0.00
2018-07-31T02:21:51.576Z,0.00
2018-07-31T02:22:51.605Z,0.00
2018-07-31T02:23:51.631Z,0.00
2018-07-31T02:24:51.660Z,0.00
2018-07-31T02:25:51.687Z,0.00
2018-07-31T02:26:51.716Z,0.00
2018-07-31T02:27:51.745Z,0.00
2018-07-31T02:28:51.770Z,0.00
2018-07-31T02:29:51.800Z,0.00
2018-07-31T02:30:51.825Z,0.00
2018-07-31T02:31:51.856Z,0.00
2018-07-31T02:32:51.890Z,0.00
2018-07-31T02:33:51.921Z,0.00
2018-07-31T02:34:51.953Z,0.00
2018-07-31T02:35:51.984Z,0.00
2018-07-31T02:36:52.017Z,0.00
2018-07-31T02:37:52.047Z,0.00
2018-07-31T02:38:52.079Z,0.00
2018-07-31T02:39:52.111Z,0.00
2018-07-31T02:40:52.143Z,0.00
2018-07-31T02:41:52.179Z,0.00
2018-07-31T02:42:52.209Z,0.00
2018-07-31T02:43:52.240Z,0.00
2018-07-31T02:44:52.272Z,0.00
2018-07-31T02:45:52.308Z,0.00
2018-07-31T02:46:52.397Z,0.00
2018-07-31T02:47:52.370Z,0.00
2018-07-31T02:48:52.405Z,0.00
2018-07-31T02:49:52.438Z,0.00
2018-07-31T02:50:52.470Z,0.00
2018-07-31T02:51:52.501Z,0.00
2018-07-31T02:52:52.538Z,0.00
2018-07-31T02:53:52.568Z,0.00
2018-07-31T02:54:52.597Z,0.00
2018-07-31T02:55:52.629Z,0.00
2018-07-31T02:56:52.665Z,0.00
2018-07-31T02:57:52.697Z,0.00
2018-07-31T02:58:52.731Z,0.00
2018-07-31T02:59:52.761Z,0.00
2018-07-31T03:00:52.792Z,0.00
2018-07-31T03:01:52.827Z,0.00
2018-07-31T03:02:52.859Z,0.00
2018-07-31T03:03:52.888Z,0.00
2018-07-31T03:04:52.925Z,0.00
2018-07-31T03:05:52.957Z,0.00
2018-07-31T03:06:52.987Z,0.00
2018-07-31T03:07:53.019Z,0.00
2018-07-31T03:08:53.051Z,4.00
2018-07-31T03:09:53.086Z,4.00
2018-07-31T03:10:53.119Z,4.00
2018-07-31T03:11:53.152Z,0.00
2018-07-31T03:12:53.182Z,4.00
2018-07-31T03:13:53.216Z,4.00
2018-07-31T03:14:53.249Z,4.00
2018-07-31T03:15:53.281Z,4.00
2018-07-31T03:16:53.310Z,4.00
2018-07-31T03:17:53.344Z,8.00
2018-07-31T03:18:53.382Z,4.00
2018-07-31T03:19:53.410Z,8.00
2018-07-31T03:20:53.439Z,8.00
2018-07-31T03:21:53.472Z,8.00
2018-07-31T03:22:53.505Z,8.00
2018-07-31T03:23:53.538Z,12.00
2018-07-31T03:24:53.569Z,12.00
2018-07-31T03:25:53.601Z,12.00
2018-07-31T03:26:53.637Z,16.00
2018-07-31T03:27:53.668Z,20.00
2018-07-31T03:28:53.700Z,20.00
2018-07-31T03:29:53.736Z,24.00
2018-07-31T03:30:53.766Z,28.00
2018-07-31T03:31:53.795Z,32.00
2018-07-31T03:32:53.829Z,40.00
2018-07-31T03:33:53.859Z,44.00
2018-07-31T03:34:53.893Z,48.00
2018-07-31T03:35:53.924Z,52.00
2018-07-31T03:36:53.962Z,56.00
2018-07-31T03:37:53.992Z,64.00
2018-07-31T03:38:54.022Z,76.00
2018-07-31T03:39:54.053Z,84.00
2018-07-31T03:40:54.087Z,92.00
2018-07-31T03:41:54.118Z,104.00
2018-07-31T03:42:54.154Z,116.00
2018-07-31T03:43:54.181Z,128.00
2018-07-31T03:44:54.216Z,140.00
2018-07-31T03:45:54.248Z,156.00
2018-07-31T03:46:54.282Z,168.00
2018-07-31T03:47:54.310Z,184.00
2018-07-31T03:48:54.344Z,200.00
2018-07-31T03:49:54.383Z,216.00
2018-07-31T03:50:54.411Z,232.00
2018-07-31T03:51:54.438Z,252.00
2018-07-31T03:52:54.474Z,268.00
2018-07-31T03:53:54.503Z,288.00
2018-07-31T03:54:54.536Z,308.00
2018-07-31T03:55:54.573Z,328.00
2018-07-31T03:56:54.601Z,348.00
2018-07-31T03:57:54.632Z,376.00
2018-07-31T03:58:54.664Z,400.00
2018-07-31T03:59:54.696Z,432.00
2018-07-31T04:00:54.728Z,468.00
2018-07-31T04:01:54.761Z,504.00
2018-07-31T04:02:54.795Z,536.00
2018-07-31T04:03:54.828Z,568.00
2018-07-31T04:04:54.860Z,600.00
2018-07-31T04:05:54.893Z,624.00
2018-07-31T04:06:54.924Z,652.00
2018-07-31T04:07:54.953Z,688.00
2018-07-31T04:08:54.988Z,716.00
2018-07-31T04:09:55.022Z,752.00
2018-07-31T04:10:55.054Z,784.00
2018-07-31T04:11:55.089Z,816.00
2018-07-31T04:12:55.114Z,848.00
2018-07-31T04:13:55.149Z,884.00
2018-07-31T04:14:55.183Z,916.00
2018-07-31T04:15:55.213Z,944.00
2018-07-31T04:16:55.264Z,972.00
2018-07-31T04:17:55.281Z,1004.00
2018-07-31T04:18:55.311Z,1024.00
2018-07-31T04:19:55.342Z,1060.00
2018-07-31T04:20:55.375Z,1116.00
2018-07-31T04:21:55.405Z,1176.00
2018-07-31T04:22:55.439Z,1216.00
2018-07-31T04:23:55.470Z,1252.00
2018-07-31T04:24:55.500Z,1288.00
2018-07-31T04:25:55.533Z,1324.00
2018-07-31T04:26:55.568Z,1364.00
2018-07-31T04:27:55.600Z,1404.00
2018-07-31T04:28:55.629Z,1432.00
2018-07-31T04:29:55.665Z,1468.00
2018-07-31T04:30:55.695Z,1500.00
2018-07-31T04:31:55.727Z,1540.00
2018-07-31T04:32:55.766Z,1588.00
2018-07-31T04:33:55.794Z,1628.00
2018-07-31T04:34:55.824Z,1676.00
2018-07-31T04:35:55.897Z,1720.00
2018-07-31T04:36:55.891Z,1764.00
2018-07-31T04:37:55.920Z,1816.00
2018-07-31T04:38:55.955Z,1864.00
2018-07-31T04:39:55.988Z,1916.00
2018-07-31T04:40:56.024Z,1956.00
2018-07-31T04:41:56.053Z,1996.00
2018-07-31T04:42:56.086Z,2044.00
2018-07-31T04:43:56.113Z,2104.00
2018-07-31T04:44:56.147Z,2176.00
2018-07-31T04:45:56.181Z,2244.00
2018-07-31T04:46:56.213Z,2308.00
2018-07-31T04:47:56.244Z,2380.00
2018-07-31T04:48:56.279Z,2460.00
2018-07-31T04:49:56.311Z,2528.00
2018-07-31T04:50:56.341Z,2588.00
2018-07-31T04:51:56.376Z,2656.00
2018-07-31T04:52:56.404Z,2728.00
2018-07-31T04:53:56.437Z,2776.00
2018-07-31T04:54:56.476Z,2824.00
2018-07-31T04:55:56.504Z,2852.00
2018-07-31T04:56:56.535Z,2872.00
2018-07-31T04:57:56.567Z,2892.00
2018-07-31T04:58:56.602Z,2916.00
2018-07-31T04:59:56.634Z,2960.00
2018-07-31T05:00:56.666Z,3000.00
2018-07-31T05:01:56.698Z,3024.00
2018-07-31T05:02:56.731Z,3068.00
2018-07-31T05:03:56.763Z,3108.00
2018-07-31T05:04:56.796Z,3180.00
2018-07-31T05:05:56.828Z,3332.00
2018-07-31T05:06:56.858Z,3520.00
2018-07-31T05:07:56.892Z,3768.00
2018-07-31T05:08:56.923Z,4080.00
2018-07-31T05:09:56.958Z,4440.00
2018-07-31T05:10:57.000Z,4800.00
2018-07-31T05:11:57.223Z,5052.00
2018-07-31T05:12:57.063Z,5208.00
2018-07-31T05:13:57.090Z,5304.00
2018-07-31T05:14:57.119Z,5416.00
2018-07-31T05:15:57.152Z,4744.00
2018-07-31T05:16:57.181Z,5716.00
2018-07-31T05:17:57.215Z,5788.00
2018-07-31T05:18:57.246Z,5656.00
2018-07-31T05:19:57.278Z,4948.00
2018-07-31T05:20:57.314Z,4308.00
2018-07-31T05:21:57.347Z,4244.00
2018-07-31T05:22:57.381Z,4244.00
2018-07-31T05:23:57.414Z,4292.00
2018-07-31T05:24:57.446Z,4424.00
2018-07-31T05:25:57.479Z,5072.00
2018-07-31T05:26:57.512Z,5384.00
2018-07-31T05:27:57.742Z,5696.00
2018-07-31T05:28:57.576Z,6384.00
2018-07-31T05:29:57.607Z,5500.00
2018-07-31T05:30:57.640Z,5088.00
2018-07-31T05:31:57.677Z,5564.00
2018-07-31T05:32:57.706Z,7604.00
2018-07-31T05:33:57.741Z,7952.00
2018-07-31T05:34:57.776Z,8364.00
2018-07-31T05:35:57.808Z,8796.00
2018-07-31T05:36:57.838Z,9228.00
2018-07-31T05:37:57.872Z,9928.00
2018-07-31T05:38:57.908Z,11732.00
2018-07-31T05:39:57.940Z,14304.00
2018-07-31T05:40:57.971Z,16928.00
2018-07-31T05:41:58.006Z,17824.00
2018-07-31T05:42:58.039Z,18016.00
2018-07-31T05:43:58.072Z,18432.00
2018-07-31T05:44:58.107Z,19456.00
2018-07-31T05:45:58.143Z,21024.00
2018-07-31T05:46:58.176Z,17088.00
2018-07-31T05:47:58.208Z,27808.00
2018-07-31T05:48:58.239Z,32480.00
2018-07-31T05:49:58.273Z,33824.00
2018-07-31T05:50:58.307Z,34240.00
2018-07-31T05:51:58.382Z,40416.00
2018-07-31T05:52:58.377Z,44416.00
2018-07-31T05:53:58.412Z,39456.00
2018-07-31T05:54:58.445Z,33856.00
2018-07-31T05:55:58.478Z,30944.00
2018-07-31T05:56:58.513Z,26272.00
2018-07-31T05:57:58.550Z,26016.00
2018-07-31T05:58:58.585Z,24448.00
2018-07-31T05:59:58.619Z,24800.00
2018-07-31T06:00:58.654Z,23872.00
2018-07-31T06:01:58.692Z,22528.00
2018-07-31T06:02:58.723Z,20000.00
2018-07-31T06:03:58.757Z,21664.00
2018-07-31T06:04:58.790Z,22432.00
2018-07-31T06:05:58.828Z,21280.00
2018-07-31T06:06:58.862Z,18720.00
2018-07-31T06:07:58.893Z,19040.00
2018-07-31T06:08:58.928Z,19520.00
2018-07-31T06:09:58.967Z,20704.00
2018-07-31T06:10:58.999Z,19264.00
2018-07-31T06:11:59.039Z,19296.00
2018-07-31T06:12:59.068Z,17792.00
2018-07-31T06:13:59.104Z,18496.00
2018-07-31T06:14:59.142Z,19776.00
2018-07-31T06:15:59.176Z,21568.00
2018-07-31T06:16:59.209Z,19776.00
2018-07-31T06:17:59.247Z,17152.00
2018-07-31T06:18:59.283Z,17664.00
2018-07-31T06:19:59.316Z,18720.00
2018-07-31T06:20:59.355Z,19456.00
2018-07-31T06:21:59.387Z,19168.00
2018-07-31T06:22:59.423Z,18816.00
2018-07-31T06:23:59.458Z,19552.00
2018-07-31T06:24:59.496Z,19808.00
2018-07-31T06:25:59.530Z,16736.00
2018-07-31T06:26:59.592Z,19328.00
2018-07-31T06:27:59.607Z,21344.00
2018-07-31T06:28:59.640Z,24256.00
2018-07-31T06:29:59.674Z,23040.00
2018-07-31T06:30:59.710Z,17472.00
2018-07-31T06:31:59.748Z,19008.00
2018-07-31T06:32:59.886Z,22752.00
2018-07-31T06:33:59.818Z,25344.00
2018-07-31T06:34:59.858Z,26432.00
2018-07-31T06:35:59.893Z,24480.00
2018-07-31T06:36:59.930Z,25504.00
2018-07-31T06:37:59.964Z,26272.00
2018-07-31T06:39:00.004Z,28256.00
2018-07-31T06:40:00.040Z,32928.00
2018-07-31T06:41:00.075Z,34784.00
2018-07-31T06:42:00.114Z,37760.00
2018-07-31T06:43:00.148Z,42080.00
2018-07-31T06:44:00.184Z,49248.00
2018-07-31T06:45:00.225Z,34400.00
2018-07-31T06:46:00.260Z,25312.00
2018-07-31T06:47:00.298Z,26208.00
2018-07-31T06:48:00.336Z,25408.00
2018-07-31T06:49:00.373Z,23232.00
2018-07-31T06:50:00.409Z,21248.00
2018-07-31T06:51:00.448Z,20256.00
2018-07-31T06:52:00.481Z,19616.00
2018-07-31T06:53:00.522Z,19328.00
2018-07-31T06:54:00.557Z,19072.00
2018-07-31T06:55:00.594Z,17600.00
2018-07-31T06:56:00.633Z,18560.00
2018-07-31T06:57:00.674Z,19200.00
2018-07-31T06:58:00.708Z,19584.00
2018-07-31T06:59:00.748Z,18592.00
2018-07-31T07:00:00.784Z,20320.00
2018-07-31T07:01:00.821Z,27808.00
2018-07-31T07:02:00.892Z,41056.00
2018-07-31T07:03:00.901Z,48512.00
2018-07-31T07:04:00.937Z,46720.00
2018-07-31T07:05:00.975Z,45216.00
2018-07-31T07:06:01.013Z,36320.00
2018-07-31T07:07:01.053Z,38784.00
2018-07-31T07:08:01.094Z,41184.00
2018-07-31T07:09:01.127Z,45920.00
2018-07-31T07:10:01.167Z,40224.00
2018-07-31T07:11:01.206Z,41120.00
2018-07-31T07:12:01.243Z,35744.00
2018-07-31T07:13:01.281Z,51072.00
2018-07-31T07:14:01.321Z,42304.00
2018-07-31T07:15:01.362Z,43552.00
2018-07-31T07:16:01.398Z,41888.00
2018-07-31T07:17:01.434Z,47168.00
2018-07-31T07:18:04.505Z,48832.00
2018-07-31T07:19:01.509Z,56480.00
2018-07-31T07:20:01.544Z,65504.00
2018-07-31T07:22:19.230Z,66368.00
2018-07-31T07:23:19.268Z,66080.00
2018-07-31T07:24:19.307Z,68928.00
2018-07-31T07:25:19.347Z,57536.00
2018-07-31T07:27:11.970Z,38432.00
2018-07-31T07:28:12.009Z,37888.00
2018-07-31T07:29:12.049Z,23904.00
2018-07-31T07:30:12.299Z,29376.00
2018-07-31T07:31:12.443Z,24832.00
2018-07-31T07:32:12.176Z,27360.00
2018-07-31T07:33:12.213Z,28864.00
2018-07-31T07:34:12.461Z,46272.00
2018-07-31T07:35:12.282Z,27264.00
2018-07-31T07:36:12.335Z,25984.00
2018-07-31T07:37:12.372Z,29760.00
2018-07-31T07:38:12.418Z,20576.00
2018-07-31T07:39:12.962Z,22208.00
2018-07-31T07:40:12.481Z,38208.00
2018-07-31T07:41:12.721Z,35072.00
2018-07-31T07:42:12.963Z,31840.00
2018-07-31T07:43:12.594Z,36576.00
2018-07-31T07:44:12.632Z,53952.00
2018-07-31T07:45:12.664Z,63488.00
2018-07-31T07:46:12.698Z,61088.00
2018-07-31T07:47:12.738Z,62496.00
2018-07-31T07:48:12.764Z,67936.00
2018-07-31T07:49:12.801Z,65664.00
2018-07-31T07:50:12.833Z,52032.00
2018-07-31T07:51:12.868Z,51584.00
2018-07-31T07:52:12.903Z,53888.00
2018-07-31T07:53:12.938Z,56992.00
2018-07-31T07:54:13.151Z,43488.00
2018-07-31T07:55:13.002Z,39072.00
2018-07-31T07:56:13.042Z,45280.00
2018-07-31T07:57:13.073Z,36864.00
2018-07-31T07:58:13.104Z,37632.00
2018-07-31T07:59:13.148Z,36096.00
2018-07-31T08:00:13.179Z,32192.00
2018-07-31T08:01:13.210Z,34080.00
2018-07-31T08:02:13.245Z,35872.00
2018-07-31T08:03:13.276Z,38400.00
2018-07-31T08:04:13.434Z,44672.00
2018-07-31T08:05:13.347Z,40992.00
2018-07-31T08:06:13.381Z,41120.00
2018-07-31T08:07:13.450Z,30912.00
2018-07-31T08:08:13.447Z,33696.00
2018-07-31T08:09:13.591Z,45920.00
2018-07-31T08:10:13.519Z,40800.00
2018-07-31T08:11:13.552Z,35552.00
2018-07-31T08:12:13.584Z,41408.00
2018-07-31T08:13:13.673Z,41664.00
2018-07-31T08:14:13.655Z,53248.00
2018-07-31T08:15:13.686Z,47072.00
2018-07-31T08:16:13.720Z,49120.00
2018-07-31T08:17:13.855Z,52768.00
2018-07-31T08:18:13.792Z,45632.00
2018-07-31T08:19:13.822Z,46080.00
2018-07-31T08:20:13.862Z,39424.00
2018-07-31T08:21:13.914Z,30400.00
2018-07-31T08:22:13.929Z,26016.00
2018-07-31T08:23:13.959Z,28896.00
2018-07-31T08:24:13.996Z,37024.00
2018-07-31T08:25:14.045Z,37280.00
2018-07-31T08:26:14.064Z,62240.00
2018-07-31T08:27:14.097Z,64608.00
2018-07-31T08:28:14.133Z,31456.00
2018-07-31T08:29:14.167Z,59744.00
2018-07-31T08:30:14.201Z,64704.00
2018-07-31T08:31:14.235Z,55392.00
2018-07-31T08:32:14.273Z,31872.00
2018-07-31T08:33:14.308Z,29568.00
2018-07-31T08:34:14.339Z,35488.00
2018-07-31T08:35:14.376Z,80320.00
2018-07-31T08:36:14.411Z,83232.00
2018-07-31T08:37:14.446Z,81696.00
2018-07-31T08:38:14.480Z,80832.00
2018-07-31T08:39:14.514Z,79936.00
2018-07-31T08:40:14.546Z,75616.00
2018-07-31T08:41:14.634Z,74016.00
2018-07-31T08:42:14.617Z,66464.00
2018-07-31T08:43:14.654Z,63552.00
2018-07-31T08:44:14.688Z,62144.00
2018-07-31T08:45:14.722Z,75712.00
2018-07-31T08:46:14.762Z,69472.00
2018-07-31T08:48:17.481Z,25376.00
2018-07-31T08:49:14.872Z,84608.00
2018-07-31T08:52:15.492Z,76736.00
2018-07-31T08:54:15.469Z,77760.00
2018-07-31T08:55:15.106Z,78560.00
2018-07-31T08:56:15.155Z,79808.00
2018-07-31T09:03:15.432Z,72736.00
2018-07-31T09:04:18.909Z,75104.00
2018-07-31T09:05:15.514Z,69248.00
2018-07-31T09:06:15.554Z,80288.00
2018-07-31T09:07:15.593Z,84384.00
2018-07-31T09:08:15.700Z,84736.00
2018-07-31T09:09:15.677Z,73696.00
2018-07-31T09:10:15.711Z,85344.00
2018-07-31T09:11:15.748Z,79936.00
2018-07-31T09:12:15.786Z,46848.00
2018-07-31T09:13:15.821Z,65696.00
2018-07-31T09:14:15.862Z,67328.00
2018-07-31T09:15:15.894Z,53632.00
2018-07-31T09:16:15.933Z,48288.00
2018-07-31T09:17:15.972Z,39968.00
2018-07-31T09:18:16.006Z,35712.00
2018-07-31T09:19:16.043Z,26400.00
2018-07-31T09:20:16.080Z,26016.00
2018-07-31T09:21:16.118Z,37280.00
2018-07-31T09:22:16.209Z,35648.00
2018-07-31T09:23:16.195Z,31968.00
2018-07-31T09:24:16.230Z,27200.00
2018-07-31T09:25:16.264Z,27808.00
2018-07-31T09:26:16.300Z,30112.00
2018-07-31T09:27:16.339Z,32640.00
2018-07-31T09:28:16.377Z,31264.00
2018-07-31T09:29:16.410Z,32256.00
2018-07-31T09:30:16.452Z,38752.00
2018-07-31T09:31:16.482Z,51456.00
2018-07-31T09:32:16.517Z,34720.00
2018-07-31T09:33:16.557Z,85568.00
2018-07-31T09:34:16.799Z,51744.00
2018-07-31T09:35:16.626Z,67872.00
2018-07-31T09:36:16.665Z,61600.00
2018-07-31T09:37:16.697Z,46112.00
2018-07-31T09:38:16.987Z,25696.00
2018-07-31T09:39:16.770Z,22560.00
2018-07-31T09:40:16.804Z,22112.00
2018-07-31T09:41:16.841Z,23008.00
2018-07-31T09:42:16.876Z,25728.00
2018-07-31T09:43:16.912Z,32992.00
2018-07-31T09:44:16.949Z,42208.00
2018-07-31T09:45:16.991Z,42336.00
2018-07-31T09:46:17.021Z,86240.00
2018-07-31T09:47:17.056Z,55872.00
2018-07-31T09:48:17.090Z,78496.00
2018-07-31T09:49:17.126Z,69440.00
2018-07-31T09:50:17.162Z,37632.00
2018-07-31T09:51:17.194Z,27424.00
2018-07-31T09:52:17.232Z,24416.00
2018-07-31T09:53:17.265Z,24320.00
2018-07-31T09:54:17.301Z,30848.00
2018-07-31T09:55:17.335Z,30272.00
2018-07-31T09:56:17.374Z,24384.00
2018-07-31T09:57:17.489Z,29728.00
2018-07-31T09:58:17.445Z,25088.00
2018-07-31T09:59:17.529Z,25376.00
2018-07-31T10:00:17.514Z,31456.00
2018-07-31T10:01:17.555Z,57504.00
2018-07-31T10:02:17.586Z,32736.00
2018-07-31T10:03:17.618Z,69600.00
2018-07-31T10:04:17.655Z,37600.00
2018-07-31T10:05:17.769Z,38528.00
2018-07-31T10:06:17.724Z,98976.00
2018-07-31T10:07:17.757Z,97472.00
2018-07-31T10:08:17.835Z,91008.00
2018-07-31T10:09:17.827Z,91040.00
2018-07-31T10:10:17.872Z,90080.00
2018-07-31T10:11:17.899Z,88736.00
2018-07-31T10:12:17.932Z,58752.00
2018-07-31T10:13:17.972Z,71616.00
2018-07-31T10:14:18.004Z,75424.00
2018-07-31T10:15:18.039Z,43936.00
2018-07-31T10:16:18.079Z,58784.00
2018-07-31T10:17:18.109Z,64768.00
2018-07-31T10:18:18.283Z,25088.00
2018-07-31T10:19:18.183Z,43200.00
2018-07-31T10:20:18.218Z,22240.00
2018-07-31T10:21:18.254Z,32224.00
2018-07-31T10:22:18.291Z,34368.00
2018-07-31T10:23:18.326Z,25472.00
2018-07-31T10:24:18.362Z,21216.00
2018-07-31T10:25:18.398Z,22336.00
2018-07-31T10:26:18.438Z,22720.00
2018-07-31T10:27:18.466Z,26944.00
2018-07-31T10:28:18.510Z,54464.00
2018-07-31T10:29:18.551Z,50432.00
2018-07-31T10:30:18.779Z,50048.00
2018-07-31T10:31:18.609Z,30496.00
2018-07-31T10:32:18.644Z,37312.00
2018-07-31T10:33:18.686Z,74464.00
2018-07-31T10:34:18.715Z,65024.00
2018-07-31T10:35:18.753Z,78784.00
2018-07-31T10:36:18.789Z,61248.00
2018-07-31T10:37:18.822Z,58656.00
2018-07-31T10:38:18.858Z,37056.00
2018-07-31T10:39:18.891Z,50976.00
2018-07-31T10:40:18.927Z,48448.00
2018-07-31T10:41:18.964Z,54208.00
2018-07-31T10:42:18.999Z,67904.00
2018-07-31T10:43:19.034Z,72960.00
2018-07-31T10:44:19.073Z,71744.00
2018-07-31T10:45:19.108Z,53984.00
2018-07-31T10:46:19.144Z,43616.00
2018-07-31T10:47:19.176Z,35712.00
2018-07-31T10:48:19.212Z,20256.00
2018-07-31T10:49:19.250Z,20288.00
2018-07-31T10:50:19.286Z,16596.00
2018-07-31T10:51:19.322Z,15916.00
2018-07-31T10:52:19.358Z,16028.00
2018-07-31T10:53:19.392Z,16348.00
2018-07-31T10:54:19.429Z,17344.00
2018-07-31T10:55:19.461Z,16944.00
2018-07-31T10:56:19.498Z,17536.00
2018-07-31T10:57:19.535Z,19552.00
2018-07-31T10:58:19.594Z,36352.00
2018-07-31T10:59:19.629Z,26400.00
2018-07-31T11:00:19.703Z,22496.00
2018-07-31T11:01:19.675Z,24992.00
2018-07-31T11:02:19.709Z,58400.00
2018-07-31T11:03:19.745Z,55616.00
2018-07-31T11:04:19.882Z,29664.00
2018-07-31T11:05:19.814Z,29472.00
2018-07-31T11:06:19.923Z,29440.00
2018-07-31T11:07:19.884Z,33728.00
2018-07-31T11:08:19.916Z,55616.00
2018-07-31T11:09:19.952Z,43296.00
2018-07-31T11:10:20.045Z,34432.00
2018-07-31T11:11:20.020Z,31392.00
2018-07-31T11:12:20.058Z,28192.00
2018-07-31T11:13:20.138Z,26560.00
2018-07-31T11:14:20.129Z,27296.00
2018-07-31T11:15:20.160Z,37152.00
2018-07-31T11:16:20.194Z,33824.00
2018-07-31T11:17:20.232Z,27232.00
2018-07-31T11:18:20.264Z,50688.00
2018-07-31T11:19:20.298Z,58400.00
2018-07-31T11:20:20.335Z,85600.00
2018-07-31T11:21:20.452Z,83328.00
2018-07-31T11:22:20.403Z,43584.00
2018-07-31T11:23:20.439Z,18208.00
2018-07-31T11:24:20.475Z,20992.00
2018-07-31T11:25:20.510Z,54816.00
2018-07-31T11:26:20.545Z,70112.00
2018-07-31T11:27:20.635Z,46496.00
2018-07-31T11:28:20.615Z,41440.00
2018-07-31T11:29:20.651Z,26464.00
2018-07-31T11:30:20.685Z,75264.00
2018-07-31T11:31:20.720Z,72128.00
2018-07-31T11:32:20.754Z,75552.00
2018-07-31T11:33:20.791Z,71232.00
2018-07-31T11:34:20.825Z,75264.00
2018-07-31T11:35:20.861Z,79072.00
2018-07-31T11:36:20.894Z,86688.00
2018-07-31T11:37:20.930Z,94528.00
2018-07-31T11:38:21.003Z,93760.00
2018-07-31T11:39:21.000Z,68832.00
2018-07-31T11:40:21.039Z,19840.00
2018-07-31T11:41:21.076Z,26688.00
2018-07-31T11:42:21.109Z,26048.00
2018-07-31T11:43:21.143Z,25824.00
2018-07-31T11:44:21.180Z,25056.00
2018-07-31T11:45:21.220Z,24928.00
2018-07-31T11:46:21.256Z,25152.00
2018-07-31T11:47:21.290Z,24128.00
2018-07-31T11:48:21.328Z,23968.00
2018-07-31T11:49:21.366Z,23648.00
2018-07-31T11:50:21.401Z,23168.00
2018-07-31T11:51:21.439Z,22496.00
2018-07-31T11:52:21.476Z,22048.00
2018-07-31T11:53:21.517Z,21472.00
2018-07-31T11:54:21.549Z,21408.00
2018-07-31T11:55:21.584Z,20448.00
2018-07-31T11:56:21.621Z,19296.00
2018-07-31T11:57:21.661Z,19360.00
2018-07-31T11:58:21.695Z,18848.00
2018-07-31T11:59:21.735Z,18176.00
2018-07-31T12:00:21.769Z,17628.00
2018-07-31T12:01:21.809Z,17024.00
2018-07-31T12:02:21.844Z,16628.00
2018-07-31T12:03:21.880Z,16900.00
2018-07-31T12:04:21.978Z,16876.00
2018-07-31T12:05:21.956Z,17072.00
2018-07-31T12:06:21.997Z,16700.00
2018-07-31T12:07:22.033Z,16804.00
2018-07-31T12:08:22.069Z,16940.00
2018-07-31T12:09:22.106Z,17288.00
2018-07-31T12:10:22.140Z,17760.00
2018-07-31T12:11:22.177Z,18560.00
2018-07-31T12:12:22.214Z,19040.00
2018-07-31T12:13:22.255Z,18208.00
2018-07-31T12:14:22.293Z,17860.00
2018-07-31T12:15:22.328Z,17540.00
2018-07-31T12:16:22.363Z,11764.00
2018-07-31T12:17:22.406Z,11968.00
2018-07-31T12:18:22.437Z,17780.00
2018-07-31T12:19:22.473Z,17608.00
2018-07-31T12:20:22.510Z,17332.00
2018-07-31T12:21:22.547Z,17344.00
2018-07-31T12:22:22.586Z,16504.00
2018-07-31T12:23:22.624Z,17412.00
2018-07-31T12:24:22.663Z,10120.00
2018-07-31T12:25:22.698Z,9400.00
2018-07-31T12:26:22.732Z,9104.00
2018-07-31T12:27:22.768Z,9488.00